Time;durP1;ratioP1;P1;durP2;ratioP2;P2;SDS_P1;SDS_P2;PMS_P1;PMS_P2;Temp;Humidity;BMP_temperature;BMP_pressure;BME280_temperature;BME280_humidity;BME280_pressure;Samples;Min_cycle;Max_cycle;Signal;HPM_P1;HPM_P2
2022/06/12 00:00:40;;;;;;;13.63;3.40;;;15.10;99.90;;;;;;5093424;28;20286;-79
2022/06/12 00:03:09;;;;;;;13.27;3.53;;;15.00;99.90;;;;;;5074686;28;20044;-79
2022/06/12 00:05:39;;;;;;;11.20;3.13;;;15.00;99.90;;;;;;5093100;28;20274;-80
2022/06/12 00:08:05;;;;;;;11.30;3.27;;;15.00;99.90;;;;;;5092743;28;20270;-79
2022/06/12 00:10:33;;;;;;;12.00;3.80;;;15.00;99.90;;;;;;5092947;28;20286;-79
2022/06/12 00:12:59;;;;;;;11.33;3.53;;;14.90;99.90;;;;;;5092773;28;20273;-79
2022/06/12 00:15:27;;;;;;;8.20;2.97;;;14.90;99.90;;;;;;5092735;28;20284;-79
2022/06/12 00:17:53;;;;;;;10.47;3.70;;;14.80;99.90;;;;;;5075061;28;20799;-79
2022/06/12 00:20:22;;;;;;;11.47;3.30;;;14.90;99.90;;;;;;5092660;28;20361;-79
2022/06/12 00:22:48;;;;;;;11.07;3.40;;;14.90;99.90;;;;;;5092809;28;20306;-79
2022/06/12 00:25:15;;;;;;;12.70;4.00;;;14.80;99.90;;;;;;5092482;28;20274;-79
2022/06/12 00:27:42;;;;;;;10.57;3.37;;;;;;;;;;5075237;28;20347;-80
2022/06/12 00:30:10;;;;;;;14.30;4.17;;;14.80;99.90;;;;;;5092920;28;20672;-79
2022/06/12 00:32:36;;;;;;;9.17;2.90;;;14.80;99.90;;;;;;5093039;28;20278;-80
2022/06/12 00:35:07;;;;;;;11.83;3.17;;;14.80;99.90;;;;;;5074890;28;20286;-80
2022/06/12 00:37:34;;;;;;;13.30;3.43;;;14.70;99.90;;;;;;5092687;28;20278;-80
2022/06/12 00:39:59;;;;;;;10.20;3.63;;;14.70;99.90;;;;;;5074631;28;20343;-80
2022/06/12 00:42:46;;;;;;;11.17;3.93;;;;;;;;;;5092216;28;20762;-81
2022/06/12 00:45:34;;;;;;;13.07;3.80;;;14.80;99.90;;;;;;5092377;28;20082;-80
2022/06/12 00:48:23;;;;;;;10.70;3.40;;;14.70;99.90;;;;;;5074659;28;20329;-81
2022/06/12 00:50:55;;;;;;;13.70;3.87;;;14.70;99.90;;;;;;5074913;28;20305;-81
2022/06/12 00:53:25;;;;;;;14.20;3.77;;;14.70;99.90;;;;;;5074437;28;20298;-80
2022/06/12 00:56:00;;;;;;;13.33;3.80;;;14.70;99.90;;;;;;5096845;28;20692;-80
2022/06/12 00:58:31;;;;;;;10.98;3.30;;;14.70;99.90;;;;;;5096460;28;20423;-81
2022/06/12 01:00:56;;;;;;;11.37;4.00;;;14.60;99.90;;;;;;5096696;28;20051;-80
2022/06/12 01:03:22;;;;;;;9.70;3.67;;;14.60;99.90;;;;;;5096002;28;20310;-80
2022/06/12 01:08:34;;;;;;;13.13;3.72;;;14.60;99.90;;;;;;5096410;28;20052;-81
2022/06/12 01:11:04;;;;;;;12.93;3.87;;;14.50;99.90;;;;;;5078614;28;20059;-81
2022/06/12 01:13:35;;;;;;;14.13;3.60;;;14.60;99.90;;;;;;5096438;28;20458;-80
2022/06/12 01:16:06;;;;;;;10.80;4.10;;;14.50;99.90;;;;;;5078712;28;20282;-81
2022/06/12 01:18:37;;;;;;;10.93;3.63;;;14.50;99.90;;;;;;5096050;28;20282;-81
2022/06/12 01:21:27;;;;;;;11.97;3.50;;;14.50;99.90;;;;;;5096243;28;20274;-81
2022/06/12 01:23:56;;;;;;;13.63;3.10;;;;;;;;;;5061611;28;20298;-81
2022/06/12 01:26:44;;;;;;;11.50;3.37;;;14.50;99.90;;;;;;5095806;28;20781;-80
2022/06/12 01:29:15;;;;;;;14.97;4.07;;;14.50;99.90;;;;;;5096076;28;20286;-81
2022/06/12 01:31:54;;;;;;;14.73;3.70;;;14.50;99.90;;;;;;5096254;28;20293;-80
2022/06/12 01:35:00;;;;;;;10.93;3.50;;;14.50;99.90;;;;;;5096007;28;20294;-80
2022/06/12 01:37:25;;;;;;;15.00;3.80;;;14.50;99.90;;;;;;5077781;28;20293;-81
2022/06/12 01:40:25;;;;;;;13.97;4.23;;;14.40;99.90;;;;;;5095481;28;20060;-81
2022/06/12 01:43:12;;;;;;;14.80;3.90;;;14.40;99.90;;;;;;5096544;28;20086;-80
2022/06/12 01:46:03;;;;;;;12.10;3.47;;;14.40;99.90;;;;;;5095817;28;20280;-80
2022/06/12 01:48:42;;;;;;;10.60;3.00;;;14.40;99.90;;;;;;5095578;28;20684;-80
2022/06/12 01:51:32;;;;;;;16.60;4.30;;;14.40;99.90;;;;;;5096102;28;20369;-80
2022/06/12 01:54:20;;;;;;;10.50;3.07;;;14.40;99.90;;;;;;5061455;28;20290;-81
2022/06/12 01:57:03;;;;;;;10.57;3.27;;;14.40;99.90;;;;;;5095746;28;20282;-80
2022/06/12 01:59:38;;;;;;;12.50;3.30;;;14.30;99.90;;;;;;5095331;28;20638;-80
2022/06/12 02:02:25;;;;;;;12.88;3.50;;;14.30;99.90;;;;;;5061089;28;20343;-80
2022/06/12 02:05:13;;;;;;;13.57;3.40;;;14.30;99.90;;;;;;5095165;28;20127;-81
2022/06/12 02:07:44;;;;;;;15.03;3.93;;;14.30;99.90;;;;;;5095107;28;20267;-80
2022/06/12 02:10:31;;;;;;;15.13;4.30;;;14.20;99.90;;;;;;5095663;28;20282;-80
2022/06/12 02:13:22;;;;;;;10.67;3.50;;;14.30;99.90;;;;;;5061292;28;20326;-80
2022/06/12 02:16:15;;;;;;;13.00;3.90;;;14.20;99.90;;;;;;5077438;28;20769;-81
2022/06/12 02:18:41;;;;;;;9.80;3.60;;;;;;;;;;5077350;28;20335;-81
2022/06/12 02:21:22;;;;;;;13.67;3.60;;;14.20;99.90;;;;;;5095203;28;20290;-81
2022/06/12 02:24:02;;;;;;;12.97;3.97;;;14.20;99.90;;;;;;5076776;28;20309;-80
2022/06/12 02:27:00;;;;;;;10.53;3.13;;;14.20;99.90;;;;;;5094611;28;20377;-81
2022/06/12 02:29:55;;;;;;;15.13;3.53;;;14.20;99.90;;;;;;5094742;28;20266;-80
2022/06/12 02:32:42;;;;;;;14.83;4.00;;;14.10;99.90;;;;;;5094266;28;20286;-81
2022/06/12 02:35:29;;;;;;;13.90;3.77;;;14.10;99.90;;;;;;5094555;28;20829;-81
2022/06/12 02:38:03;;;;;;;12.53;3.90;;;14.00;99.90;;;;;;5095013;28;20297;-81
2022/06/12 02:40:34;;;;;;;14.43;3.60;;;14.00;99.90;;;;;;5094378;28;20350;-80
2022/06/12 02:43:05;;;;;;;15.77;4.27;;;14.00;99.90;;;;;;5094516;28;20308;-81
2022/06/12 02:45:50;;;;;;;12.20;3.97;;;14.00;99.90;;;;;;5094371;28;20717;-80
2022/06/12 02:48:16;;;;;;;9.80;3.72;;;14.00;99.90;;;;;;5094496;28;20338;-81
2022/06/12 02:50:53;;;;;;;13.37;4.20;;;13.90;99.90;;;;;;5094031;28;20044;-81
2022/06/12 02:53:49;;;;;;;13.40;3.70;;;14.00;99.90;;;;;;5094250;28;20345;-81
2022/06/12 02:56:20;;;;;;;12.60;4.10;;;14.00;99.90;;;;;;5093110;28;20286;-81
2022/06/12 02:59:00;;;;;;;18.53;4.40;;;13.90;99.90;;;;;;5093882;28;20313;-81
2022/06/12 03:01:34;;;;;;;15.87;4.67;;;13.90;99.90;;;;;;5093745;28;20358;-81
2022/06/12 03:04:15;;;;;;;13.83;4.30;;;13.90;99.90;;;;;;5094457;28;20305;-81
2022/06/12 03:06:42;;;;;;;10.80;4.10;;;13.90;99.90;;;;;;5093999;28;20286;-81
2022/06/12 03:09:08;;;;;;;11.40;3.43;;;13.90;99.90;;;;;;5093975;28;20336;-81
2022/06/12 03:11:44;;;;;;;12.10;3.97;;;13.90;99.90;;;;;;5093725;28;20278;-81
2022/06/12 03:14:19;;;;;;;16.77;4.03;;;13.90;99.90;;;;;;5093921;28;20082;-81
2022/06/12 03:16:46;;;;;;;16.17;4.37;;;13.90;99.90;;;;;;5075856;28;20290;-81
2022/06/12 03:19:28;;;;;;;16.00;3.97;;;13.80;99.90;;;;;;5075753;28;20664;-81
2022/06/12 03:22:17;;;;;;;12.30;3.93;;;13.90;99.90;;;;;;5094038;28;20285;-81
2022/06/12 03:24:52;;;;;;;16.10;4.10;;;13.80;99.90;;;;;;5093841;28;20891;-80
2022/06/12 03:27:38;;;;;;;16.95;4.32;;;13.80;99.90;;;;;;5076267;28;20373;-81
2022/06/12 03:30:20;;;;;;;17.43;4.13;;;13.90;99.90;;;;;;5075872;28;20055;-80
2022/06/12 03:33:10;;;;;;;17.73;4.00;;;13.90;99.90;;;;;;5093620;28;20444;-81
2022/06/12 03:35:57;;;;;;;15.10;4.13;;;13.90;99.90;;;;;;5093571;28;20837;-81
2022/06/12 03:38:56;;;;;;;13.20;3.90;;;13.90;99.90;;;;;;5110645;27;20168;-80
2022/06/12 03:41:40;;;;;;;16.00;4.47;;;14.00;99.90;;;;;;5110622;28;20718;-80
2022/06/12 03:44:21;;;;;;;17.70;4.50;;;14.00;99.90;;;;;;5110631;28;20769;-80
2022/06/12 03:47:05;;;;;;;14.07;4.63;;;14.10;99.90;;;;;;5110332;28;20265;-80
2022/06/12 03:49:56;;;;;;;11.33;3.80;;;14.10;99.90;;;;;;5110165;28;20391;-79
2022/06/12 03:52:43;;;;;;;12.57;3.90;;;14.10;99.90;;;;;;5110660;28;20298;-80
2022/06/12 03:57:50;;;;;;;15.37;3.90;;;14.20;99.90;;;;;;5109249;28;20292;-80
2022/06/12 03:58:12;;;;;;;15.67;4.20;;;14.20;99.90;;;;;;5110387;28;20815;-79
2022/06/12 04:00:41;;;;;;;15.03;4.30;;;14.20;99.90;;;;;;5110208;28;20282;-80
2022/06/12 04:03:11;;;;;;;16.80;5.30;;;14.20;99.90;;;;;;5110023;28;20781;-79
2022/06/12 04:05:59;;;;;;;17.13;4.60;;;14.10;99.90;;;;;;5109725;28;20286;-79
2022/06/12 04:08:48;;;;;;;15.57;4.30;;;14.10;99.90;;;;;;5109682;28;20304;-79
2022/06/12 04:11:16;;;;;;;12.40;3.77;;;14.10;99.90;;;;;;5110094;28;20270;-80
2022/06/12 04:13:43;;;;;;;13.13;4.40;;;14.10;99.90;;;;;;5108290;28;20677;-80
2022/06/12 04:16:27;;;;;;;18.83;4.87;;;14.10;99.90;;;;;;5108725;28;20309;-80
2022/06/12 04:18:53;;;;;;;13.53;3.73;;;14.10;99.90;;;;;;5109357;28;20380;-80
2022/06/12 04:21:26;;;;;;;15.90;4.20;;;14.10;99.90;;;;;;5110091;28;20294;-80
2022/06/12 04:24:21;;;;;;;19.60;4.87;;;14.10;99.90;;;;;;5109676;28;20289;-79
2022/06/12 04:26:52;;;;;;;11.25;3.45;;;14.10;99.90;;;;;;5099306;28;20290;-80
2022/06/12 04:29:26;;;;;;;15.33;3.70;;;14.10;99.90;;;;;;5108741;28;20094;-80
2022/06/12 04:31:55;;;;;;;15.67;4.03;;;14.20;99.90;;;;;;5109490;28;20657;-80
2022/06/12 04:34:25;;;;;;;16.20;4.17;;;14.30;99.90;;;;;;5109522;28;20334;-80
2022/06/12 04:36:54;;;;;;;13.33;3.90;;;14.40;99.90;;;;;;5115820;28;20317;-80
2022/06/12 04:39:24;;;;;;;14.70;3.50;;;14.50;99.90;;;;;;5130017;28;20273;-80
2022/06/12 04:41:51;;;;;;;18.07;4.33;;;14.60;99.90;;;;;;5129317;28;20284;-80
2022/06/12 04:44:17;;;;;;;11.67;3.77;;;14.70;99.90;;;;;;5111665;28;20281;-80
2022/06/12 04:46:46;;;;;;;16.17;3.43;;;14.70;99.90;;;;;;5094469;28;20322;-80
2022/06/12 04:49:24;;;;;;;14.27;3.53;;;14.80;99.90;;;;;;5101687;28;20360;-80
2022/06/12 04:51:52;;;;;;;16.37;4.10;;;14.80;99.90;;;;;;5115795;28;20634;-80
2022/06/12 04:54:19;;;;;;;13.67;3.37;;;14.90;99.90;;;;;;5115716;28;20321;-80
2022/06/12 04:56:45;;;;;;;18.27;4.20;;;14.90;99.90;;;;;;5115600;28;20364;-79
2022/06/12 04:59:13;;;;;;;14.87;3.63;;;15.00;99.90;;;;;;5115719;28;20288;-80
2022/06/12 05:01:39;;;;;;;14.00;3.87;;;15.20;99.90;;;;;;5097478;28;20361;-80
2022/06/12 05:04:05;;;;;;;15.90;4.93;;;15.30;99.90;;;;;;5115893;28;20282;-81
2022/06/12 05:06:33;;;;;;;17.53;4.07;;;15.40;99.90;;;;;;5097489;28;20289;-79
2022/06/12 05:08:59;;;;;;;11.83;3.23;;;15.60;99.90;;;;;;5115211;28;20290;-80
2022/06/12 05:11:25;;;;;;;15.13;3.43;;;15.70;99.90;;;;;;5115660;28;20285;-79
2022/06/12 05:13:51;;;;;;;14.27;3.57;;;15.80;99.90;;;;;;5115254;28;20289;-80
2022/06/12 05:16:30;;;;;;;15.17;4.37;;;15.90;99.90;;;;;;5097117;28;20706;-79
2022/06/12 05:18:57;;;;;;;15.30;5.57;;;16.10;99.90;;;;;;5115284;28;20327;-80
2022/06/12 05:21:23;;;;;;;15.47;4.13;;;;;;;;;;5115139;28;20317;-80
2022/06/12 05:23:49;;;;;;;15.73;3.60;;;16.30;99.90;;;;;;5096766;28;20342;-79
2022/06/12 05:26:17;;;;;;;17.53;4.83;;;16.30;99.90;;;;;;5097427;28;20293;-79
2022/06/12 05:28:43;;;;;;;19.47;4.63;;;16.20;99.90;;;;;;5115207;28;20127;-79
2022/06/12 05:31:09;;;;;;;16.77;4.90;;;16.10;99.90;;;;;;5115535;28;20414;-79
2022/06/12 05:33:35;;;;;;;19.50;5.07;;;16.00;99.90;;;;;;5115178;28;20044;-79
2022/06/12 05:36:00;;;;;;;15.20;3.90;;;16.10;99.90;;;;;;5114823;28;20059;-79
2022/06/12 05:38:26;;;;;;;19.83;5.13;;;;;;;;;;5115298;28;20052;-80
2022/06/12 05:40:53;;;;;;;16.77;5.00;;;;;;;;;;5115040;28;20130;-79
2022/06/12 05:43:19;;;;;;;20.17;5.43;;;17.00;99.90;;;;;;5097020;28;20285;-80
2022/06/12 05:45:45;;;;;;;18.57;4.80;;;17.10;99.90;;;;;;5114448;28;20287;-79
2022/06/12 05:48:12;;;;;;;17.57;4.40;;;;;;;;;;5096746;28;20047;-80
2022/06/12 05:50:48;;;;;;;18.30;5.27;;;;;;;;;;5114865;28;20043;-80
2022/06/12 05:53:15;;;;;;;20.97;4.80;;;;;;;;;;5115263;28;20399;-80
2022/06/12 05:55:41;;;;;;;20.07;5.67;;;;;;;;;;5114921;28;20043;-80
2022/06/12 05:58:07;;;;;;;16.63;4.13;;;;;;;;;;5114532;28;20047;-80
2022/06/12 06:00:33;;;;;;;19.63;5.63;;;;;;;;;;5113790;28;20044;-80
2022/06/12 06:02:59;;;;;;;13.73;4.50;;;21.90;99.90;;;;;;5096396;28;20040;-80
2022/06/12 06:05:25;;;;;;;20.03;4.93;;;;;;;;;;5097111;28;20066;-81
2022/06/12 06:07:51;;;;;;;19.43;5.30;;;23.70;95.00;;;;;;5096205;28;20062;-80
2022/06/12 06:10:21;;;;;;;25.00;5.87;;;24.20;99.90;;;;;;5114220;28;20043;-81
2022/06/12 06:12:47;;;;;;;18.53;4.57;;;24.70;98.00;;;;;;5113989;28;20115;-81
2022/06/12 06:15:13;;;;;;;20.63;4.83;;;25.50;99.90;;;;;;5113910;28;20138;-81
2022/06/12 06:17:40;;;;;;;17.63;5.63;;;26.20;99.20;;;;;;5113828;28;20134;-81
2022/06/12 06:20:07;;;;;;;21.63;5.57;;;26.80;94.10;;;;;;5113600;28;20793;-81
2022/06/12 06:22:33;;;;;;;19.37;5.53;;;;;;;;;;5113865;28;20115;-81
2022/06/12 06:24:59;;;;;;;17.60;4.87;;;27.90;58.50;;;;;;5113733;28;20092;-81
2022/06/12 06:27:25;;;;;;;18.37;5.90;;;27.90;68.70;;;;;;5113896;28;20039;-81
2022/06/12 06:29:51;;;;;;;16.50;5.83;;;;;;;;;;5113661;28;20376;-80
2022/06/12 06:32:18;;;;;;;19.40;5.40;;;;;;;;;;5113802;28;20047;-81
2022/06/12 06:34:44;;;;;;;21.70;5.67;;;;;;;;;;5114166;28;20048;-82
2022/06/12 06:37:11;;;;;;;19.37;5.80;;;;;;;;;;5113831;28;20055;-81
2022/06/12 06:39:38;;;;;;;20.95;5.22;;;;;;;;;;5113881;28;20556;-81
2022/06/12 06:42:06;;;;;;;20.27;6.20;;;29.70;55.50;;;;;;5113388;28;20487;-81
2022/06/12 06:47:16;;;;;;;23.98;6.75;;;28.90;55.40;;;;;;5113729;28;20048;-81
2022/06/12 06:49:42;;;;;;;21.00;6.25;;;28.70;56.10;;;;;;5113768;28;20055;-81
2022/06/12 06:52:08;;;;;;;19.73;5.93;;;28.60;56.60;;;;;;5095408;28;20043;-81
2022/06/12 06:54:34;;;;;;;23.05;7.22;;;28.30;56.20;;;;;;5113497;28;20051;-81
2022/06/12 06:56:59;;;;;;;21.30;6.72;;;28.00;56.10;;;;;;5095199;28;20044;-80
2022/06/12 06:59:25;;;;;;;18.83;5.65;;;27.70;56.20;;;;;;5113269;28;20040;-80
2022/06/12 07:01:52;;;;;;;16.67;5.90;;;27.10;56.70;;;;;;5113504;28;20606;-79
2022/06/12 07:04:18;;;;;;;18.90;5.50;;;;;;;;;;5113414;28;20047;-80
2022/06/12 07:06:44;;;;;;;20.40;5.78;;;;;;;;;;5113246;28;20483;-80
2022/06/12 07:09:11;;;;;;;25.50;5.95;;;28.10;54.60;;;;;;5095525;28;20515;-80
2022/06/12 07:11:37;;;;;;;17.60;4.72;;;27.80;54.80;;;;;;5112953;28;20082;-80
2022/06/12 07:14:02;;;;;;;19.88;5.32;;;27.70;55.70;;;;;;5112757;28;20051;-80
2022/06/12 07:16:31;;;;;;;19.15;5.18;;;28.40;55.50;;;;;;5078458;28;20085;-80
2022/06/12 07:18:57;;;;;;;17.92;4.82;;;;;;;;;;5112974;28;20126;-81
2022/06/12 07:21:23;;;;;;;19.13;6.65;;;;;;;;;;5113331;28;20096;-81
2022/06/12 07:23:49;;;;;;;17.50;5.53;;;;;;;;;;5113093;28;20083;-81
2022/06/12 07:26:30;;;;;;;16.13;5.22;;;31.20;44.50;;;;;;5112683;28;20070;-81
2022/06/12 07:28:56;;;;;;;17.02;4.90;;;31.30;45.60;;;;;;5095244;28;20040;-81
2022/06/12 07:31:23;;;;;;;15.95;4.78;;;31.60;46.90;;;;;;5113034;28;20126;-81
2022/06/12 07:33:49;;;;;;;15.27;5.10;;;31.70;46.10;;;;;;5113099;28;20130;-80
2022/06/12 07:36:16;;;;;;;19.05;5.72;;;;;;;;;;5112578;28;20063;-81
2022/06/12 07:38:43;;;;;;;15.52;4.70;;;;;;;;;;5112896;28;20056;-81
2022/06/12 07:41:10;;;;;;;17.42;5.55;;;;;;;;;;5112496;28;20128;-81
2022/06/12 07:43:37;;;;;;;13.98;5.32;;;;;;;;;;5113088;28;20047;-81
2022/06/12 07:46:05;;;;;;;10.52;3.95;;;;;;;;;;5112866;28;20075;-81
2022/06/12 07:48:34;;;;;;;14.25;4.90;;;;;;;;;;5112965;28;20130;-81
2022/06/12 07:51:01;;;;;;;11.93;4.38;;;;;;;;;;5094530;28;20491;-81
2022/06/12 07:53:28;;;;;;;11.75;4.10;;;;;;;;;;5112694;28;20464;-81
2022/06/12 07:55:55;;;;;;;13.43;4.82;;;;;;;;;;5095222;28;20052;-82
2022/06/12 07:58:23;;;;;;;12.77;4.68;;;;;;;;;;5112725;28;20514;-81
2022/06/12 08:00:49;;;;;;;16.77;5.07;;;;;;;;;;5113221;28;20127;-81
2022/06/12 08:03:15;;;;;;;11.52;4.78;;;;;;;;;;5112587;28;20105;-82
2022/06/12 08:05:42;;;;;;;15.52;5.22;;;;;;;;;;5112757;28;20083;-81
2022/06/12 08:08:07;;;;;;;11.55;4.35;;;31.10;80.50;;;;;;5112448;28;20047;-81
2022/06/12 08:10:33;;;;;;;13.57;4.57;;;30.60;42.40;;;;;;5095135;28;20048;-80
2022/06/12 08:13:03;;;;;;;10.65;3.97;;;30.40;43.70;;;;;;5112832;28;20044;-80
2022/06/12 08:15:30;;;;;;;9.57;3.95;;;30.00;42.30;;;;;;5112694;28;20068;-80
2022/06/12 08:17:56;;;;;;;10.52;3.30;;;30.40;43.10;;;;;;5112644;28;20395;-80
2022/06/12 08:20:28;;;;;;;11.27;4.25;;;31.00;42.10;;;;;;5112271;28;20056;-81
2022/06/12 08:22:56;;;;;;;8.95;3.58;;;;;;;;;;5113823;28;20058;-81
2022/06/12 08:25:23;;;;;;;9.85;3.63;;;;;;;;;;5116297;28;20047;-81
2022/06/12 08:27:49;;;;;;;7.80;2.90;;;;;;;;;;5098696;28;20460;-81
2022/06/12 08:30:14;;;;;;;10.68;3.28;;;33.10;36.60;;;;;;5116307;28;20055;-80
2022/06/12 08:32:42;;;;;;;9.40;4.03;;;33.20;37.70;;;;;;5116489;28;20040;-80
2022/06/12 08:35:16;;;;;;;11.25;3.97;;;33.10;37.30;;;;;;5116273;28;20126;-80
2022/06/12 08:37:43;;;;;;;13.85;3.67;;;32.90;38.00;;;;;;5098254;28;20135;-81
2022/06/12 08:40:38;;;;;;;8.07;4.05;;;32.70;38.60;;;;;;5116471;28;20066;-81
2022/06/12 08:43:45;;;;;;;10.60;3.72;;;32.30;39.00;;;;;;5098819;28;20052;-81
2022/06/12 08:46:23;;;;;;;9.05;3.45;;;31.80;39.80;;;;;;5075928;28;20047;-76
2022/06/12 08:49:19;;;;;;;8.23;2.75;;;31.30;39.60;;;;;;5098098;28;20399;-83
2022/06/12 08:52:01;;;;;;;10.52;3.40;;;31.00;39.10;;;;;;5094230;28;20529;-77
2022/06/12 08:54:30;;;;;;;8.77;3.42;;;;;;;;;;5116214;28;20086;-80
2022/06/12 08:57:04;;;;;;;11.02;4.03;;;29.60;39.60;;;;;;5116040;28;20040;-79
2022/06/12 08:59:44;;;;;;;7.75;3.03;;;29.20;41.10;;;;;;5115986;28;20149;-80
2022/06/12 09:02:21;;;;;;;8.45;3.17;;;;;;;;;;5115813;28;20063;-79
2022/06/12 09:04:47;;;;;;;9.40;3.47;;;;;;;;;;5115894;28;20044;-80
2022/06/12 09:07:16;;;;;;;10.85;2.95;;;;;;;;;;5115272;28;20051;-79
2022/06/12 09:09:57;;;;;;;10.82;3.05;;;;;;;;;;5116204;28;20430;-79
2022/06/12 09:12:35;;;;;;;8.35;2.90;;;27.20;43.10;;;;;;5115444;28;20040;-79
2022/06/12 09:15:04;;;;;;;9.98;2.70;;;;;;;;;;5097339;28;20402;-80
2022/06/12 09:17:36;;;;;;;9.82;3.17;;;27.20;44.30;;;;;;5115427;28;20051;-79
2022/06/12 09:20:09;;;;;;;8.88;2.70;;;;;;;;;;5115617;28;20509;-79
2022/06/12 09:22:54;;;;;;;11.43;2.80;;;27.00;44.90;;;;;;5115313;28;20043;-79
2022/06/12 09:25:47;;;;;;;7.07;2.75;;;26.70;45.40;;;;;;5115241;28;20089;-79
2022/06/12 09:28:40;;;;;;;7.88;2.30;;;26.50;45.90;;;;;;5115429;28;20403;-78
2022/06/12 09:31:26;;;;;;;5.93;2.40;;;26.30;46.20;;;;;;5115432;28;20471;-80
2022/06/12 09:34:14;;;;;;;10.07;2.70;;;26.30;46.50;;;;;;5115019;28;20087;-79
2022/06/12 09:37:00;;;;;;;9.75;2.72;;;26.20;46.60;;;;;;5115204;28;20064;-79
2022/06/12 09:39:49;;;;;;;7.07;2.80;;;;;;;;;;5115053;28;20509;-79
2022/06/12 09:42:25;;;;;;;9.10;2.42;;;26.00;82.60;;;;;;5114841;28;20060;-77
2022/06/12 09:44:51;;;;;;;9.00;2.67;;;;;;;;;;5115355;28;20392;-79
2022/06/12 09:47:31;;;;;;;9.23;2.70;;;25.60;84.00;;;;;;5114853;28;20486;-79
2022/06/12 09:50:09;;;;;;;6.83;2.83;;;;;;;;;;5115221;28;20083;-80
2022/06/12 09:52:56;;;;;;;9.97;2.87;;;24.90;87.80;;;;;;5114668;28;20406;-79
2022/06/12 09:55:38;;;;;;;9.57;2.83;;;25.10;48.00;;;;;;5114949;28;20051;-79
2022/06/12 09:58:19;;;;;;;7.77;2.80;;;25.00;48.50;;;;;;5115083;28;20093;-79
2022/06/12 10:00:51;;;;;;;7.70;2.40;;;24.80;49.10;;;;;;5114866;28;20047;-79
2022/06/12 10:03:39;;;;;;;9.40;3.03;;;24.70;49.20;;;;;;5096772;28;20055;-79
2022/06/12 10:08:53;;;;;;;8.33;2.70;;;24.40;50.00;;;;;;5114690;28;20062;-79
2022/06/12 10:11:40;;;;;;;9.50;2.70;;;24.30;50.80;;;;;;5114265;28;20414;-72
2022/06/12 10:14:25;;;;;;;15.27;3.73;;;24.20;50.30;;;;;;5114435;28;20114;-80
2022/06/12 10:17:15;;;;;;;9.17;2.50;;;24.00;50.60;;;;;;5096683;28;20124;-79
2022/06/12 10:19:47;;;;;;;10.20;2.97;;;23.80;51.10;;;;;;5113955;28;20498;-78
2022/06/12 10:22:33;;;;;;;9.30;2.80;;;23.60;51.20;;;;;;5114550;28;20105;-79
2022/06/12 10:25:02;;;;;;;11.20;3.17;;;23.50;52.20;;;;;;5114610;28;20142;-79
2022/06/12 10:27:47;;;;;;;8.37;2.80;;;23.50;52.50;;;;;;5114091;28;20046;-78
2022/06/12 10:30:30;;;;;;;9.83;2.90;;;23.50;52.70;;;;;;5114230;28;20055;-79
2022/06/12 10:32:58;;;;;;;8.03;2.33;;;23.50;53.10;;;;;;5095836;28;20445;-79
2022/06/12 10:35:26;;;;;;;10.07;3.17;;;23.50;52.40;;;;;;5113779;28;20483;-79
2022/06/12 10:38:02;;;;;;;9.33;3.30;;;23.60;52.70;;;;;;5113563;28;20587;-79
2022/06/12 10:40:28;;;;;;;10.83;2.87;;;23.50;53.10;;;;;;5113599;28;20043;-79
2022/06/12 10:42:58;;;;;;;10.00;3.07;;;23.40;53.40;;;;;;5114391;28;20100;-80
2022/06/12 10:45:28;;;;;;;13.00;3.63;;;23.40;52.00;;;;;;5113902;28;20062;-79
2022/06/12 10:47:57;;;;;;;10.70;2.97;;;23.20;52.10;;;;;;5113629;28;20040;-79
2022/06/12 10:50:26;;;;;;;10.27;2.83;;;23.10;52.10;;;;;;5095627;28;20055;-79
2022/06/12 10:52:56;;;;;;;8.93;2.97;;;22.80;52.60;;;;;;5113883;28;20101;-80
2022/06/12 10:55:34;;;;;;;10.80;3.30;;;22.80;53.20;;;;;;5113805;28;20041;-80
2022/06/12 10:58:31;;;;;;;10.27;3.10;;;22.70;54.00;;;;;;5113712;28;20042;-80
2022/06/12 11:01:19;;;;;;;11.30;3.40;;;22.80;71.90;;;;;;5113666;28;20052;-80
2022/06/12 11:04:20;;;;;;;10.97;3.27;;;22.70;69.00;;;;;;5113243;28;20525;-79
2022/06/12 11:07:13;;;;;;;10.70;2.90;;;22.70;68.90;;;;;;5095531;28;20138;-80
2022/06/12 11:10:04;;;;;;;9.30;2.93;;;22.80;65.00;;;;;;5095170;28;20051;-79
2022/06/12 11:13:00;;;;;;;7.90;2.73;;;22.80;63.90;;;;;;5112102;28;20066;-79
2022/06/12 11:15:45;;;;;;;11.27;3.70;;;;;;;;;;5113210;28;20134;-78
2022/06/12 11:18:30;;;;;;;9.55;3.20;;;;;;;;;;5094886;28;20044;-79
2022/06/12 11:21:16;;;;;;;11.00;3.55;;;;;;;;;;5113465;28;20385;-79
2022/06/12 11:24:29;;;;;;;12.47;3.83;;;22.10;55.80;;;;;;5113046;28;20472;-79
2022/06/12 11:27:14;;;;;;;8.77;2.80;;;22.40;57.00;;;;;;5030493;28;20171;-79
2022/06/12 11:29:55;;;;;;;10.90;3.23;;;22.30;57.40;;;;;;5030368;28;20049;-79
2022/06/12 11:32:58;;;;;;;13.43;3.60;;;22.40;58.40;;;;;;5088196;28;20055;-79
2022/06/12 11:35:43;;;;;;;11.93;3.57;;;22.40;58.60;;;;;;5113542;28;20051;-79
2022/06/12 11:38:18;;;;;;;12.57;3.87;;;22.40;59.80;;;;;;5113232;28;20086;-79
2022/06/12 11:41:02;;;;;;;;;;;22.30;59.30;;;;;;5113267;28;20087;-79
2022/06/12 11:43:33;;;;;;;12.90;3.33;;;22.20;60.20;;;;;;5095121;28;19920;-79
2022/06/12 11:46:17;;;;;;;12.03;3.57;;;22.20;60.00;;;;;;5113244;28;20046;-79
2022/06/12 11:48:54;;;;;;;12.60;3.50;;;22.20;59.10;;;;;;5112862;28;20442;-79
2022/06/12 11:51:49;;;;;;;9.27;3.10;;;22.10;60.20;;;;;;5112958;28;20051;-79
2022/06/12 11:54:50;;;;;;;9.25;2.85;;;22.00;61.30;;;;;;5113199;28;20047;-76
2022/06/12 11:57:42;;;;;;;12.43;3.70;;;22.00;61.00;;;;;;5113086;28;20395;-80
2022/06/12 12:00:13;;;;;;;8.87;3.47;;;21.90;60.00;;;;;;5085138;28;20474;-80
2022/06/12 12:02:52;;;;;;;8.93;3.33;;;21.70;59.30;;;;;;5116855;28;20069;-80
2022/06/12 12:05:46;;;;;;;10.33;3.63;;;21.70;59.60;;;;;;5117221;28;20048;-80
2022/06/12 12:08:20;;;;;;;9.17;3.13;;;21.70;59.10;;;;;;5116929;28;20039;-79
2022/06/12 12:10:55;;;;;;;;;;;21.70;58.90;;;;;;5098891;28;20502;-80
2022/06/12 12:13:27;;;;;;;9.63;3.17;;;21.60;60.10;;;;;;5117112;28;19934;-80
2022/06/12 12:15:58;;;;;;;8.57;3.00;;;21.60;59.30;;;;;;5116738;28;20379;-80
2022/06/12 12:18:38;;;;;;;9.80;2.80;;;21.70;60.40;;;;;;5098612;28;20047;-79
2022/06/12 12:21:11;;;;;;;8.20;2.83;;;21.70;60.40;;;;;;5116716;28;20550;-80
2022/06/12 12:23:42;;;;;;;9.53;2.87;;;21.60;58.70;;;;;;5098483;28;20059;-80
2022/06/12 12:26:25;;;;;;;9.07;2.73;;;21.60;58.30;;;;;;5116668;28;20047;-80
2022/06/12 12:29:00;;;;;;;9.73;3.10;;;21.60;58.50;;;;;;5116231;28;20047;-75
2022/06/12 12:31:28;;;;;;;10.70;3.43;;;21.60;58.50;;;;;;5116477;28;20085;-79
2022/06/12 12:33:56;;;;;;;9.37;3.13;;;21.60;58.20;;;;;;5116268;28;20116;-80
2022/06/12 12:42:27;;;;;;;9.87;2.83;;;21.70;60.20;;;;;;5116338;28;20214;-79
2022/06/12 12:44:53;;;;;;;9.13;3.30;;;21.70;60.90;;;;;;5115858;28;20052;-80
2022/06/12 12:47:22;;;;;;;9.17;2.97;;;21.70;61.00;;;;;;5116222;28;20488;-79
2022/06/12 12:49:48;;;;;;;9.10;2.50;;;21.60;60.50;;;;;;5115772;28;20574;-79
2022/06/12 12:52:17;;;;;;;10.33;2.63;;;21.60;60.10;;;;;;5116472;28;20047;-79
2022/06/12 12:54:47;;;;;;;10.23;3.17;;;21.70;61.10;;;;;;5115953;28;20047;-80
2022/06/12 12:57:16;;;;;;;8.40;3.10;;;21.80;61.80;;;;;;5116397;28;20051;-79
2022/06/12 12:59:45;;;;;;;11.90;3.10;;;21.80;61.70;;;;;;5115604;28;20047;-80
2022/06/12 13:02:32;;;;;;;10.67;3.03;;;21.80;61.80;;;;;;5115918;28;20384;-80
2022/06/12 13:05:13;;;;;;;10.07;3.20;;;21.80;60.20;;;;;;5097707;28;20094;-80
2022/06/12 13:08:09;;;;;;;9.70;2.80;;;21.80;61.60;;;;;;5115933;28;20040;-80
2022/06/12 13:10:56;;;;;;;9.43;3.10;;;21.80;60.90;;;;;;5115208;28;20039;-80
2022/06/12 13:13:31;;;;;;;10.53;3.80;;;21.80;61.20;;;;;;5115976;28;20052;-76
2022/06/12 13:16:17;;;;;;;10.07;2.85;;;21.90;62.20;;;;;;5097272;28;20122;-77
2022/06/12 13:19:13;;;;;;;11.27;3.60;;;21.90;61.10;;;;;;5115478;28;20407;-76
2022/06/12 13:22:00;;;;;;;9.70;3.30;;;21.90;61.10;;;;;;5115682;28;20047;-75
2022/06/12 13:24:36;;;;;;;11.10;3.27;;;21.90;59.90;;;;;;5115514;28;20040;-74
2022/06/12 13:27:22;;;;;;;8.70;3.10;;;21.90;60.40;;;;;;5114913;28;20085;-74
2022/06/12 13:29:51;;;;;;;9.73;3.20;;;21.80;60.60;;;;;;5115305;28;20127;-80
2022/06/12 13:32:32;;;;;;;11.00;3.70;;;21.70;61.40;;;;;;5115666;28;20054;-76
2022/06/12 13:35:04;;;;;;;13.83;3.80;;;21.70;61.60;;;;;;5096994;28;20446;-74
2022/06/12 13:37:32;;;;;;;10.63;3.40;;;21.70;60.80;;;;;;5114861;28;20130;-77
2022/06/12 13:40:00;;;;;;;11.63;3.20;;;21.60;62.30;;;;;;5114740;28;20574;-79
2022/06/12 13:42:28;;;;;;;17.53;4.33;;;21.60;61.80;;;;;;5115357;28;20491;-79
2022/06/12 13:44:55;;;;;;;10.30;3.60;;;;;;;;;;5114926;28;20523;-79
2022/06/12 13:47:35;;;;;;;10.13;3.00;;;21.50;60.30;;;;;;5115360;28;20045;-80
2022/06/12 13:50:27;;;;;;;10.17;2.73;;;21.50;61.10;;;;;;5114877;28;20078;-79
2022/06/12 13:53:03;;;;;;;9.60;3.10;;;21.40;61.70;;;;;;5114748;28;20047;-79